This is the latest recevied weather packets stored in our database for station/object SP2MHC-2. If no packets are shown the sender has not sent any weather packets the latest 10 day(s).
| Time | Temp. | Humidity | Pressure | Rain* | Wind** | Luminosity | Snow |
|---|---|---|---|---|---|---|---|
| 1777695885 | 16.67° C | 38% | 1020.4 hPa | - | - | - | - |
| 1777695884 | 16.67° C | 38% | 1020.4 hPa | - | - | - | - |
| 1777694985 | 15.56° C | 40% | 1020.4 hPa | - | - | - | - |
| 1777694984 | 15.56° C | 40% | 1020.4 hPa | - | - | - | - |
| 1777694087 | 13.89° C | 41% | 1020.4 hPa | - | - | - | - |
| 1777694084 | 13.89° C | 41% | 1020.4 hPa | - | - | - | - |
| 1777693184 | 12.22° C | 44% | 1020.4 hPa | - | - | - | - |
| 1777693183 | 12.22° C | 44% | 1020.4 hPa | - | - | - | - |
| 1777692284 | 10° C | 47% | 1020.5 hPa | - | - | - | - |
| 1777692283 | 10° C | 47% | 1020.5 hPa | - | - | - | - |
| 1777691384 | 8.33° C | 50% | 1020.4 hPa | - | - | - | - |
| 1777691383 | 8.33° C | 50% | 1020.4 hPa | - | - | - | - |
| 1777690484 | 9.44° C | 48% | 1020.4 hPa | - | - | - | - |
| 1777690483 | 9.44° C | 48% | 1020.4 hPa | - | - | - | - |
| 1777689584 | 10° C | 46% | 1020.4 hPa | - | - | - | - |
| 1777689583 | 10° C | 46% | 1020.4 hPa | - | - | - | - |
| 1777688717 | 9.44° C | 47% | 1020.3 hPa | - | - | - | - |
| 1777688684 | 9.44° C | 47% | 1020.3 hPa | - | - | - | - |
| 1777688683 | 9.44° C | 47% | 1020.3 hPa | - | - | - | - |
| 1777687817 | 9.44° C | 47% | 1020.3 hPa | - | - | - | - |
| 1777687783 | 9.44° C | 47% | 1020.3 hPa | - | - | - | - |
| 1777687782 | 9.44° C | 47% | 1020.3 hPa | - | - | - | - |
| 1777686883 | 10° C | 46% | 1020.3 hPa | - | - | - | - |
| 1777686882 | 10° C | 46% | 1020.3 hPa | - | - | - | - |
| 1777685983 | 10° C | 45% | 1020.3 hPa | - | - | - | - |
* Rain since midnight (hover to see other rain measurements)
** Current wind speed in m/s (hover to see current wind gust speed)